Costa Marques, Brazil
Current Conditions -  °F | °C
As of 5:00 PM on Thursday 23 Oct 2014 (Local Time) from SLMG Reporting Station
Thunderstorm Thunderstorm  
Wind Chill: 24°   Ceiling: 20000
Heat Index: 24°   Visibility: 5mi
Dew Point: 23°   Wind: 0mph
Humidity: 94%   Direction: NA
Pressure: 29.74"   Gusts: NA
Location:  12.45°S, 64.23°W
Report Text: SLMG 232100Z 00000KT 8000 TS VCSH SCT015 FEW023CB OVC200 24/23 Q1007
Loading
Personal Weather Stations






























Interactive Weather Map
Tropical Storm Tracking
New forecast layout! Learn more

10-Day Weather Forecast

Advertisements
Track Severe Weather on mobile